createdAt,value
2017-12-06T00:00:31.855Z,0.00
2017-12-06T00:01:31.911Z,0.00
2017-12-06T00:02:31.937Z,0.00
2017-12-06T00:03:31.982Z,0.00
2017-12-06T00:04:32.039Z,0.00
2017-12-06T00:05:32.107Z,0.00
2017-12-06T00:06:32.105Z,0.00
2017-12-06T00:07:32.144Z,0.00
2017-12-06T00:08:32.186Z,0.00
2017-12-06T00:09:32.244Z,0.00
2017-12-06T00:10:32.272Z,0.00
2017-12-06T00:11:32.313Z,0.00
2017-12-06T00:12:34.166Z,0.00
2017-12-06T00:13:32.404Z,0.00
2017-12-06T00:14:32.436Z,0.00
2017-12-06T00:15:32.480Z,0.00
2017-12-06T00:16:32.524Z,0.00
2017-12-06T00:17:32.580Z,0.00
2017-12-06T00:18:32.606Z,0.00
2017-12-06T00:19:32.664Z,0.00
2017-12-06T00:20:32.690Z,0.00
2017-12-06T00:21:32.729Z,0.00
2017-12-06T00:22:32.786Z,0.00
2017-12-06T00:23:32.816Z,0.00
2017-12-06T00:24:32.875Z,0.00
2017-12-06T00:25:32.898Z,0.00
2017-12-06T00:26:32.939Z,0.00
2017-12-06T00:27:32.992Z,0.00
2017-12-06T00:28:33.023Z,0.00
2017-12-06T00:29:33.066Z,0.00
2017-12-06T00:30:33.136Z,0.00
2017-12-06T00:31:33.147Z,0.00
2017-12-06T00:32:33.193Z,0.00
2017-12-06T00:33:33.231Z,0.00
2017-12-06T00:34:33.272Z,0.00
2017-12-06T00:35:33.333Z,0.00
2017-12-06T00:36:33.359Z,0.00
2017-12-06T00:37:33.416Z,0.00
2017-12-06T00:38:33.439Z,0.00
2017-12-06T00:39:34.164Z,0.00
2017-12-06T00:40:33.523Z,0.00
2017-12-06T00:41:33.564Z,0.00
2017-12-06T00:42:33.624Z,0.00
2017-12-06T00:43:33.647Z,0.00
2017-12-06T00:44:33.690Z,0.00
2017-12-06T00:45:33.730Z,0.00
2017-12-06T00:46:33.797Z,0.00
2017-12-06T00:47:33.815Z,0.00
2017-12-06T00:48:33.854Z,0.00
2017-12-06T00:49:33.896Z,0.00
2017-12-06T00:50:33.937Z,0.00
2017-12-06T00:51:33.996Z,0.00
2017-12-06T00:52:34.020Z,0.00
2017-12-06T00:53:34.062Z,0.00
2017-12-06T00:54:34.127Z,0.00
2017-12-06T00:55:34.144Z,0.00
2017-12-06T00:56:34.188Z,0.00
2017-12-06T00:57:34.229Z,0.00
2017-12-06T00:58:34.270Z,0.00
2017-12-06T00:59:34.326Z,0.00
2017-12-06T01:00:34.358Z,0.00
2017-12-06T01:01:34.394Z,0.00
2017-12-06T01:02:34.451Z,0.00
2017-12-06T01:03:34.479Z,0.00
2017-12-06T01:04:34.516Z,0.00
2017-12-06T01:05:34.576Z,0.00
2017-12-06T01:06:34.601Z,0.00
2017-12-06T01:07:34.656Z,0.00
2017-12-06T01:08:34.685Z,0.00
2017-12-06T01:09:34.725Z,0.00
2017-12-06T01:10:34.769Z,0.00
2017-12-06T01:11:34.806Z,0.00
2017-12-06T01:12:34.864Z,0.00
2017-12-06T01:13:34.890Z,0.00
2017-12-06T01:14:34.931Z,0.00
2017-12-06T01:15:34.974Z,0.00
2017-12-06T01:16:35.014Z,0.00
2017-12-06T01:17:35.076Z,0.00
2017-12-06T01:18:35.099Z,0.00
2017-12-06T01:19:35.139Z,0.00
2017-12-06T01:20:35.180Z,0.00
2017-12-06T01:21:35.223Z,0.00
2017-12-06T01:22:35.277Z,0.00
2017-12-06T01:23:35.308Z,0.00
2017-12-06T01:24:35.357Z,0.00
2017-12-06T01:25:35.387Z,0.00
2017-12-06T01:26:35.445Z,0.00
2017-12-06T01:27:35.471Z,0.00
2017-12-06T01:28:35.511Z,0.00
2017-12-06T01:29:35.554Z,0.00
2017-12-06T01:30:35.600Z,0.00
2017-12-06T01:31:35.655Z,0.00
2017-12-06T01:32:35.677Z,0.00
2017-12-06T01:33:35.720Z,0.00
2017-12-06T01:34:35.766Z,0.00
2017-12-06T01:35:35.804Z,0.00
2017-12-06T01:36:35.862Z,0.00
2017-12-06T01:37:35.890Z,0.00
2017-12-06T01:38:35.926Z,0.00
2017-12-06T01:39:35.980Z,0.00
2017-12-06T01:40:36.017Z,0.00
2017-12-06T01:41:36.070Z,0.00
2017-12-06T01:42:36.099Z,0.00
2017-12-06T01:43:36.134Z,0.00
2017-12-06T01:44:36.178Z,0.00
2017-12-06T01:45:36.221Z,0.00
2017-12-06T01:46:36.277Z,0.00
2017-12-06T01:47:36.300Z,0.00
2017-12-06T01:48:36.349Z,0.00
2017-12-06T01:49:36.385Z,0.00
2017-12-06T01:50:36.426Z,0.00
2017-12-06T01:51:36.482Z,0.00
2017-12-06T01:52:36.509Z,0.00
2017-12-06T01:53:36.550Z,0.00
2017-12-06T01:54:36.592Z,0.00
2017-12-06T01:55:36.632Z,0.00
2017-12-06T01:56:36.690Z,0.00
2017-12-06T01:57:36.734Z,0.00
2017-12-06T01:58:36.765Z,0.00
2017-12-06T01:59:36.799Z,0.00
2017-12-06T02:00:36.839Z,0.00
2017-12-06T02:01:36.882Z,0.00
2017-12-06T02:02:36.939Z,0.00
2017-12-06T02:03:36.964Z,0.00
2017-12-06T02:04:37.007Z,0.00
2017-12-06T02:05:37.047Z,0.00
2017-12-06T02:06:37.088Z,0.00
2017-12-06T02:07:37.146Z,0.00
2017-12-06T02:08:37.190Z,0.00
2017-12-06T02:09:37.219Z,0.00
2017-12-06T02:10:37.258Z,0.00
2017-12-06T02:11:37.294Z,0.00
2017-12-06T02:12:37.356Z,0.00
2017-12-06T02:13:37.406Z,0.00
2017-12-06T02:14:37.422Z,0.00
2017-12-06T02:15:37.461Z,0.00
2017-12-06T02:16:37.502Z,0.00
2017-12-06T02:17:37.543Z,0.00
2017-12-06T02:18:37.604Z,0.00
2017-12-06T02:19:37.625Z,0.00
2017-12-06T02:20:37.670Z,0.00
2017-12-06T02:21:37.708Z,0.00
2017-12-06T02:22:37.750Z,0.00
2017-12-06T02:23:37.810Z,0.00
2017-12-06T02:24:37.832Z,0.00
2017-12-06T02:25:37.874Z,0.00
2017-12-06T02:26:37.920Z,0.00
2017-12-06T02:27:37.956Z,0.00
2017-12-06T02:28:38.017Z,0.00
2017-12-06T02:29:38.039Z,0.00
2017-12-06T02:30:38.095Z,0.00
2017-12-06T02:31:38.121Z,0.00
2017-12-06T02:32:38.164Z,0.00
2017-12-06T02:33:38.204Z,0.00
2017-12-06T02:34:38.251Z,0.00
2017-12-06T02:35:38.314Z,0.00
2017-12-06T02:36:38.326Z,0.00
2017-12-06T02:37:38.374Z,0.00
2017-12-06T02:38:38.410Z,0.00
2017-12-06T02:39:38.452Z,0.00
2017-12-06T02:40:38.509Z,0.00
2017-12-06T02:41:38.535Z,0.00
2017-12-06T02:42:38.576Z,0.00
2017-12-06T02:43:38.618Z,0.00
2017-12-06T02:44:38.659Z,0.00
2017-12-06T02:45:38.716Z,0.00
2017-12-06T02:46:38.766Z,0.00
2017-12-06T02:47:38.785Z,0.00
2017-12-06T02:48:38.825Z,0.00
2017-12-06T02:49:38.866Z,0.00
2017-12-06T02:50:38.907Z,0.00
2017-12-06T02:51:38.965Z,0.00
2017-12-06T02:52:38.993Z,0.00
2017-12-06T02:53:39.032Z,0.00
2017-12-06T02:54:39.075Z,0.00
2017-12-06T02:55:39.113Z,0.00
2017-12-06T02:56:39.185Z,0.00
2017-12-06T02:57:39.198Z,0.00
2017-12-06T02:58:39.362Z,0.00
2017-12-06T02:59:39.287Z,0.00
2017-12-06T03:00:39.322Z,0.00
2017-12-06T03:01:39.381Z,0.00
2017-12-06T03:02:39.405Z,0.00
2017-12-06T03:03:39.448Z,0.00
2017-12-06T03:04:39.496Z,0.00
2017-12-06T03:05:39.529Z,0.00
2017-12-06T03:06:39.589Z,0.00
2017-12-06T03:07:39.612Z,0.00
2017-12-06T03:08:39.654Z,0.00
2017-12-06T03:09:39.695Z,0.00
2017-12-06T03:10:39.739Z,0.00
2017-12-06T03:11:39.796Z,0.00
2017-12-06T03:12:39.820Z,0.00
2017-12-06T03:13:39.864Z,0.00
2017-12-06T03:14:39.905Z,0.00
2017-12-06T03:15:39.953Z,0.00
2017-12-06T03:16:40.005Z,0.00
2017-12-06T03:17:40.028Z,0.00
2017-12-06T03:18:40.084Z,0.00
2017-12-06T03:19:40.113Z,0.00
2017-12-06T03:20:40.152Z,0.00
2017-12-06T03:21:40.194Z,0.00
2017-12-06T03:22:40.234Z,0.00
2017-12-06T03:23:40.293Z,0.00
2017-12-06T03:24:40.317Z,0.00
2017-12-06T03:25:40.360Z,0.00
2017-12-06T03:26:40.400Z,0.00
2017-12-06T03:27:40.446Z,0.00
2017-12-06T03:28:40.500Z,0.00
2017-12-06T03:29:40.526Z,0.00
2017-12-06T03:30:40.567Z,0.00
2017-12-06T03:31:40.608Z,0.00
2017-12-06T03:32:40.647Z,0.00
2017-12-06T03:33:40.716Z,0.00
2017-12-06T03:34:40.749Z,0.00
2017-12-06T03:35:40.775Z,0.00
2017-12-06T03:36:40.821Z,0.00
2017-12-06T03:37:40.868Z,0.00
2017-12-06T03:38:40.916Z,0.00
2017-12-06T03:39:40.943Z,0.00
2017-12-06T03:40:40.999Z,0.00
2017-12-06T03:41:41.030Z,0.00
2017-12-06T03:42:41.072Z,0.00
2017-12-06T03:43:41.109Z,0.00
2017-12-06T03:44:41.153Z,0.00
2017-12-06T03:45:41.207Z,0.00
2017-12-06T03:46:41.231Z,0.00
2017-12-06T03:47:41.276Z,0.00
2017-12-06T03:48:41.315Z,0.00
2017-12-06T03:49:41.354Z,0.00
2017-12-06T03:50:41.421Z,0.00
2017-12-06T03:51:41.440Z,0.00
2017-12-06T03:52:41.482Z,0.00
2017-12-06T03:53:41.526Z,0.00
2017-12-06T03:54:41.566Z,0.00
2017-12-06T03:55:41.621Z,0.00
2017-12-06T03:56:41.649Z,0.00
2017-12-06T03:57:41.691Z,0.00
2017-12-06T03:58:41.732Z,0.00
2017-12-06T03:59:41.772Z,0.00
2017-12-06T04:00:41.835Z,0.00
2017-12-06T04:01:41.870Z,0.00
2017-12-06T04:02:41.896Z,0.00
2017-12-06T04:03:41.955Z,0.00
2017-12-06T04:04:41.979Z,0.00
2017-12-06T04:05:42.020Z,0.00
2017-12-06T04:06:42.079Z,0.00
2017-12-06T04:07:42.119Z,0.00
2017-12-06T04:08:42.147Z,0.00
2017-12-06T04:09:42.193Z,0.00
2017-12-06T04:10:42.226Z,0.00
2017-12-06T04:11:42.289Z,0.00
2017-12-06T04:12:42.312Z,0.00
2017-12-06T04:13:42.351Z,0.00
2017-12-06T04:14:42.392Z,0.00
2017-12-06T04:15:42.434Z,0.00
2017-12-06T04:16:42.925Z,0.00
2017-12-06T04:17:42.556Z,0.00
2017-12-06T04:18:42.574Z,0.00
2017-12-06T04:19:42.599Z,0.00
2017-12-06T04:20:42.647Z,0.00
2017-12-06T04:21:42.682Z,0.00
2017-12-06T04:22:42.729Z,0.00
2017-12-06T04:23:42.781Z,0.00
2017-12-06T04:24:43.453Z,0.00
2017-12-06T04:25:42.851Z,0.00
2017-12-06T04:26:42.888Z,0.00
2017-12-06T04:27:42.929Z,0.00
2017-12-06T04:28:42.986Z,0.00
2017-12-06T04:29:43.013Z,0.00
2017-12-06T04:30:43.054Z,0.00
2017-12-06T04:31:43.102Z,0.00
2017-12-06T04:32:43.139Z,0.00
2017-12-06T04:33:43.196Z,0.00
2017-12-06T04:34:43.233Z,0.00
2017-12-06T04:35:43.259Z,0.00
2017-12-06T04:36:43.301Z,0.00
2017-12-06T04:37:43.342Z,0.00
2017-12-06T04:38:43.400Z,0.00
2017-12-06T04:39:43.441Z,0.00
2017-12-06T04:40:43.469Z,0.00
2017-12-06T04:41:43.511Z,0.00
2017-12-06T04:42:43.547Z,0.00
2017-12-06T04:43:43.592Z,0.00
2017-12-06T04:44:43.653Z,0.00
2017-12-06T04:45:43.784Z,0.00
2017-12-06T04:46:43.712Z,0.00
2017-12-06T04:47:43.753Z,0.00
2017-12-06T04:48:43.798Z,0.00
2017-12-06T04:49:43.863Z,0.00
2017-12-06T04:50:43.878Z,0.00
2017-12-06T04:51:43.918Z,0.00
2017-12-06T04:52:43.964Z,0.00
2017-12-06T04:53:44.004Z,0.00
2017-12-06T04:54:44.061Z,0.00
2017-12-06T04:55:44.083Z,0.00
2017-12-06T04:56:44.122Z,0.00
2017-12-06T04:57:44.166Z,0.00
2017-12-06T04:58:44.213Z,0.00
2017-12-06T04:59:44.261Z,0.00
2017-12-06T05:00:44.313Z,0.00
2017-12-06T05:01:44.331Z,0.00
2017-12-06T05:02:44.371Z,0.00
2017-12-06T05:03:44.413Z,0.00
2017-12-06T05:04:44.459Z,0.00
2017-12-06T05:05:44.511Z,0.00
2017-12-06T05:06:44.536Z,0.00
2017-12-06T05:07:44.577Z,0.00
2017-12-06T05:08:44.619Z,0.00
2017-12-06T05:09:44.662Z,0.00
2017-12-06T05:10:44.716Z,0.00
2017-12-06T05:11:44.743Z,0.00
2017-12-06T05:12:44.783Z,0.00
2017-12-06T05:13:44.825Z,0.00
2017-12-06T05:14:44.866Z,0.00
2017-12-06T05:15:44.921Z,0.00
2017-12-06T05:16:44.964Z,0.00
2017-12-06T05:17:44.991Z,0.00
2017-12-06T05:18:45.032Z,0.00
2017-12-06T05:19:45.072Z,0.00
2017-12-06T05:20:45.129Z,0.00
2017-12-06T05:21:45.154Z,0.00
2017-12-06T05:22:45.212Z,0.00
2017-12-06T05:23:45.236Z,0.00
2017-12-06T05:24:45.278Z,0.00
2017-12-06T05:25:45.338Z,0.00
2017-12-06T05:26:45.361Z,0.00
2017-12-06T05:27:45.412Z,0.00
2017-12-06T05:28:45.444Z,0.00
2017-12-06T05:29:45.486Z,0.00
2017-12-06T05:30:45.524Z,0.00
2017-12-06T05:31:45.583Z,0.00
2017-12-06T05:32:45.626Z,0.00
2017-12-06T05:33:45.649Z,0.00
2017-12-06T05:34:45.688Z,0.00
2017-12-06T05:35:45.731Z,0.00
2017-12-06T05:36:45.799Z,0.00
2017-12-06T05:37:45.826Z,0.00
2017-12-06T05:38:45.854Z,0.00
2017-12-06T05:39:45.894Z,0.00
2017-12-06T05:40:45.936Z,0.00
2017-12-06T05:41:45.980Z,0.00
2017-12-06T05:42:46.038Z,0.00
2017-12-06T05:43:46.061Z,0.00
2017-12-06T05:44:46.104Z,0.00
2017-12-06T05:45:46.152Z,0.00
2017-12-06T05:46:46.343Z,0.00
2017-12-06T05:47:46.241Z,0.00
2017-12-06T05:48:46.282Z,0.00
2017-12-06T05:49:46.312Z,0.00
2017-12-06T05:50:46.349Z,0.00
2017-12-06T05:51:46.390Z,0.00
2017-12-06T05:52:46.431Z,0.00
2017-12-06T05:53:46.491Z,0.00
2017-12-06T05:54:46.571Z,0.00
2017-12-06T05:55:46.555Z,0.00
2017-12-06T05:56:46.597Z,0.00
2017-12-06T05:57:46.637Z,0.00
2017-12-06T05:58:46.703Z,0.00
2017-12-06T05:59:46.720Z,0.00
2017-12-06T06:00:46.762Z,0.00
2017-12-06T06:01:46.805Z,0.00
2017-12-06T06:02:46.844Z,0.00
2017-12-06T06:03:46.905Z,0.00
2017-12-06T06:04:46.927Z,0.00
2017-12-06T06:05:46.968Z,0.00
2017-12-06T06:06:47.008Z,0.00
2017-12-06T06:07:47.050Z,0.00
2017-12-06T06:08:47.111Z,0.00
2017-12-06T06:09:47.133Z,0.00
2017-12-06T06:10:47.176Z,0.00
2017-12-06T06:11:47.215Z,0.00
2017-12-06T06:12:47.260Z,0.00
2017-12-06T06:13:47.323Z,0.00
2017-12-06T06:14:47.358Z,0.00
2017-12-06T06:15:47.383Z,0.00
2017-12-06T06:16:47.422Z,0.00
2017-12-06T06:17:47.467Z,0.00
2017-12-06T06:18:47.504Z,0.00
2017-12-06T06:19:47.567Z,0.00
2017-12-06T06:20:47.592Z,0.00
2017-12-06T06:21:47.631Z,0.00
2017-12-06T06:22:47.670Z,0.00
2017-12-06T06:23:47.716Z,0.00
2017-12-06T06:24:47.771Z,0.00
2017-12-06T06:25:47.797Z,0.00
2017-12-06T06:26:47.835Z,4.00
2017-12-06T06:27:47.874Z,4.00
2017-12-06T06:28:47.918Z,0.00
2017-12-06T06:29:47.976Z,0.00
2017-12-06T06:30:48.002Z,4.00
2017-12-06T06:31:48.062Z,4.00
2017-12-06T06:32:48.092Z,4.00
2017-12-06T06:33:48.124Z,4.00
2017-12-06T06:34:48.165Z,4.00
2017-12-06T06:35:48.222Z,8.00
2017-12-06T06:36:48.251Z,8.00
2017-12-06T06:37:48.290Z,12.00
2017-12-06T06:38:48.331Z,16.00
2017-12-06T06:39:48.378Z,12.00
2017-12-06T06:40:48.432Z,16.00
2017-12-06T06:41:48.478Z,16.00
2017-12-06T06:42:48.496Z,24.00
2017-12-06T06:43:48.538Z,24.00
2017-12-06T06:44:48.582Z,28.00
2017-12-06T06:45:48.621Z,32.00
2017-12-06T06:46:48.977Z,36.00
2017-12-06T06:47:48.702Z,40.00
2017-12-06T06:48:48.743Z,48.00
2017-12-06T06:49:48.785Z,56.00
2017-12-06T06:50:48.828Z,60.00
2017-12-06T06:51:48.883Z,68.00
2017-12-06T06:52:48.926Z,72.00
2017-12-06T06:53:48.953Z,80.00
2017-12-06T06:54:48.991Z,88.00
2017-12-06T06:55:49.033Z,92.00
2017-12-06T06:56:49.071Z,100.00
2017-12-06T06:57:49.134Z,108.00
2017-12-06T06:58:49.156Z,112.00
2017-12-06T06:59:49.202Z,120.00
2017-12-06T07:00:49.242Z,124.00
2017-12-06T07:01:49.297Z,132.00
2017-12-06T07:02:49.321Z,140.00
2017-12-06T07:03:49.363Z,148.00
2017-12-06T07:04:49.406Z,160.00
2017-12-06T07:05:49.448Z,172.00
2017-12-06T07:06:49.506Z,180.00
2017-12-06T07:07:49.530Z,196.00
2017-12-06T07:08:49.571Z,204.00
2017-12-06T07:09:49.611Z,216.00
2017-12-06T07:10:49.670Z,220.00
2017-12-06T07:11:49.711Z,236.00
2017-12-06T07:12:49.749Z,248.00
2017-12-06T07:13:49.791Z,260.00
2017-12-06T07:14:49.815Z,272.00
2017-12-06T07:15:49.855Z,280.00
2017-12-06T07:16:49.900Z,296.00
2017-12-06T07:17:49.945Z,304.00
2017-12-06T07:18:50.009Z,320.00
2017-12-06T07:19:50.022Z,332.00
2017-12-06T07:20:50.068Z,344.00
2017-12-06T07:21:50.104Z,352.00
2017-12-06T07:22:50.146Z,360.00
2017-12-06T07:23:50.204Z,368.00
2017-12-06T07:24:50.227Z,376.00
2017-12-06T07:25:50.269Z,380.00
2017-12-06T07:26:50.310Z,392.00
2017-12-06T07:27:50.347Z,404.00
2017-12-06T07:28:50.412Z,416.00
2017-12-06T07:29:50.437Z,424.00
2017-12-06T07:30:50.476Z,444.00
2017-12-06T07:31:50.515Z,472.00
2017-12-06T07:32:50.557Z,500.00
2017-12-06T07:33:50.619Z,512.00
2017-12-06T07:34:50.658Z,540.00
2017-12-06T07:35:50.680Z,580.00
2017-12-06T07:36:50.724Z,616.00
2017-12-06T07:37:50.762Z,644.00
2017-12-06T07:38:50.803Z,664.00
2017-12-06T07:39:50.867Z,700.00
2017-12-06T07:40:50.892Z,744.00
2017-12-06T07:41:50.928Z,784.00
2017-12-06T07:42:50.968Z,820.00
2017-12-06T07:43:51.011Z,836.00
2017-12-06T07:44:51.067Z,828.00
2017-12-06T07:45:51.092Z,820.00
2017-12-06T07:46:51.134Z,820.00
2017-12-06T07:47:51.184Z,832.00
2017-12-06T07:48:51.216Z,828.00
2017-12-06T07:49:51.274Z,828.00
2017-12-06T07:50:51.298Z,828.00
2017-12-06T07:51:51.339Z,836.00
2017-12-06T07:52:51.382Z,856.00
2017-12-06T07:53:51.423Z,876.00
2017-12-06T07:54:51.478Z,884.00
2017-12-06T07:55:51.507Z,904.00
2017-12-06T07:56:51.549Z,948.00
2017-12-06T07:57:51.587Z,996.00
2017-12-06T07:58:51.629Z,1032.00
2017-12-06T07:59:51.684Z,1044.00
2017-12-06T08:00:51.713Z,1012.00
2017-12-06T08:01:51.767Z,980.00
2017-12-06T08:02:51.794Z,968.00
2017-12-06T08:03:51.832Z,976.00
2017-12-06T08:04:51.875Z,968.00
2017-12-06T08:05:51.923Z,1028.00
2017-12-06T08:06:51.972Z,1100.00
2017-12-06T08:07:51.998Z,1152.00
2017-12-06T08:08:52.040Z,1168.00
2017-12-06T08:09:52.082Z,1168.00
2017-12-06T08:10:52.124Z,1180.00
2017-12-06T08:11:52.181Z,1228.00
2017-12-06T08:12:52.206Z,1264.00
2017-12-06T08:13:52.249Z,1280.00
2017-12-06T08:14:52.288Z,1300.00
2017-12-06T08:15:52.328Z,1328.00
2017-12-06T08:16:52.415Z,1364.00
2017-12-06T08:17:52.410Z,1420.00
2017-12-06T08:18:52.450Z,1496.00
2017-12-06T08:19:52.491Z,1568.00
2017-12-06T08:20:52.534Z,1612.00
2017-12-06T08:21:52.593Z,1624.00
2017-12-06T08:22:52.614Z,1620.00
2017-12-06T08:23:52.656Z,1612.00
2017-12-06T08:24:52.697Z,1644.00
2017-12-06T08:25:52.739Z,1688.00
2017-12-06T08:26:52.795Z,1724.00
2017-12-06T08:27:52.821Z,1752.00
2017-12-06T08:28:52.862Z,1772.00
2017-12-06T08:29:52.904Z,1776.00
2017-12-06T08:30:52.946Z,1780.00
2017-12-06T08:31:53.004Z,1800.00
2017-12-06T08:32:53.026Z,1824.00
2017-12-06T08:33:53.067Z,1840.00
2017-12-06T08:34:53.112Z,1880.00
2017-12-06T08:35:53.150Z,1924.00
2017-12-06T08:36:53.208Z,1940.00
2017-12-06T08:37:53.231Z,1952.00
2017-12-06T08:38:53.288Z,1956.00
2017-12-06T08:39:53.314Z,1956.00
2017-12-06T08:40:53.353Z,1948.00
2017-12-06T08:41:53.936Z,1968.00
2017-12-06T08:42:53.438Z,2016.00
2017-12-06T08:43:53.496Z,2068.00
2017-12-06T08:44:53.517Z,2120.00
2017-12-06T08:45:53.579Z,2176.00
2017-12-06T08:46:53.600Z,2244.00
2017-12-06T08:47:53.640Z,2320.00
2017-12-06T08:48:53.697Z,2404.00
2017-12-06T08:49:53.720Z,2500.00
2017-12-06T08:50:54.612Z,2596.00
2017-12-06T08:51:53.804Z,2648.00
2017-12-06T08:52:53.888Z,2692.00
2017-12-06T08:53:53.908Z,2728.00
2017-12-06T08:54:53.931Z,2748.00
2017-12-06T08:55:53.969Z,2752.00
2017-12-06T08:56:54.533Z,2748.00
2017-12-06T08:57:54.048Z,2744.00
2017-12-06T08:58:54.106Z,2712.00
2017-12-06T08:59:54.144Z,2692.00
2017-12-06T09:00:54.178Z,2680.00
2017-12-06T09:01:54.212Z,2676.00
2017-12-06T09:02:54.255Z,2664.00
2017-12-06T09:03:54.294Z,2672.00
2017-12-06T09:04:54.358Z,2716.00
2017-12-06T09:05:54.934Z,2744.00
2017-12-06T09:06:54.417Z,2768.00
2017-12-06T09:07:54.459Z,2792.00
2017-12-06T09:08:54.499Z,2788.00
2017-12-06T09:09:54.554Z,2744.00
2017-12-06T09:10:54.582Z,2724.00
2017-12-06T09:11:54.618Z,2756.00
2017-12-06T09:12:54.660Z,2752.00
2017-12-06T09:13:54.701Z,2736.00
2017-12-06T09:14:54.758Z,2764.00
2017-12-06T09:15:54.814Z,2796.00
2017-12-06T09:16:54.825Z,2828.00
2017-12-06T09:17:54.865Z,2896.00
2017-12-06T09:18:55.033Z,2936.00
2017-12-06T09:24:43.312Z,3072.00
2017-12-06T09:25:43.295Z,3064.00
2017-12-06T09:26:43.335Z,3016.00
2017-12-06T09:27:43.394Z,2976.00
2017-12-06T09:28:43.420Z,2972.00
2017-12-06T09:29:43.458Z,2984.00
2017-12-06T09:30:43.498Z,3004.00
2017-12-06T09:31:43.561Z,3028.00
2017-12-06T09:32:43.600Z,3080.00
2017-12-06T09:33:43.619Z,3128.00
2017-12-06T09:34:43.665Z,3172.00
2017-12-06T09:35:43.702Z,3232.00
2017-12-06T09:36:43.758Z,3292.00
2017-12-06T09:37:43.802Z,3328.00
2017-12-06T09:38:43.824Z,3364.00
2017-12-06T09:39:43.865Z,3384.00
2017-12-06T09:40:43.908Z,3372.00
2017-12-06T09:41:43.967Z,3384.00
2017-12-06T09:42:43.988Z,3420.00
2017-12-06T09:43:44.029Z,3492.00
2017-12-06T09:44:44.093Z,3564.00
2017-12-06T09:45:44.110Z,3640.00
2017-12-06T09:46:44.167Z,3728.00
2017-12-06T09:47:44.193Z,3800.00
2017-12-06T09:48:44.248Z,3864.00
2017-12-06T09:49:44.278Z,3944.00
2017-12-06T09:50:44.315Z,4000.00
2017-12-06T09:51:44.359Z,4048.00
2017-12-06T09:52:44.396Z,4080.00
2017-12-06T09:53:44.461Z,4116.00
2017-12-06T09:54:44.482Z,4112.00
2017-12-06T09:55:44.521Z,4072.00
2017-12-06T09:56:44.563Z,4008.00
2017-12-06T09:57:44.607Z,3904.00
2017-12-06T09:58:44.663Z,3788.00
2017-12-06T09:59:44.685Z,3684.00
2017-12-06T10:00:44.726Z,3620.00
2017-12-06T10:01:44.863Z,3612.00
2017-12-06T10:02:44.806Z,3636.00
2017-12-06T10:03:44.862Z,3660.00
2017-12-06T10:04:44.890Z,3704.00
2017-12-06T10:05:44.929Z,3784.00
2017-12-06T10:06:44.979Z,3848.00
2017-12-06T10:07:45.028Z,3884.00
2017-12-06T10:08:45.053Z,3908.00
2017-12-06T10:09:45.099Z,3936.00
2017-12-06T10:10:45.134Z,3976.00
2017-12-06T10:11:45.175Z,4020.00
2017-12-06T10:12:45.231Z,4080.00
2017-12-06T10:13:45.257Z,4136.00
2017-12-06T10:14:45.317Z,4144.00
2017-12-06T10:15:45.338Z,4176.00
2017-12-06T10:16:45.378Z,4280.00
2017-12-06T10:17:45.421Z,4436.00
2017-12-06T10:18:45.464Z,4576.00
2017-12-06T10:19:45.527Z,4656.00
2017-12-06T10:20:45.544Z,4692.00
2017-12-06T10:21:45.586Z,4708.00
2017-12-06T10:22:45.646Z,4688.00
2017-12-06T10:23:45.669Z,4616.00
2017-12-06T10:24:45.710Z,4532.00
2017-12-06T10:25:45.758Z,4500.00
2017-12-06T10:26:45.793Z,4524.00
2017-12-06T10:27:45.856Z,4640.00
2017-12-06T10:28:45.877Z,4804.00
2017-12-06T10:29:45.948Z,4968.00
2017-12-06T10:30:45.958Z,5108.00
2017-12-06T10:31:45.999Z,5216.00
2017-12-06T10:32:46.059Z,5288.00
2017-12-06T10:33:46.081Z,5360.00
2017-12-06T10:34:46.123Z,5488.00
2017-12-06T10:35:46.168Z,5684.00
2017-12-06T10:36:46.206Z,5860.00
2017-12-06T10:37:46.264Z,5932.00
2017-12-06T10:38:46.290Z,5900.00
2017-12-06T10:39:46.331Z,5796.00
2017-12-06T10:40:47.114Z,5672.00
2017-12-06T10:41:46.427Z,5560.00
2017-12-06T10:42:46.455Z,5496.00
2017-12-06T10:43:46.500Z,5500.00
2017-12-06T10:44:46.536Z,5560.00
2017-12-06T10:45:46.649Z,5620.00
2017-12-06T10:46:46.625Z,5532.00
2017-12-06T10:47:46.664Z,5312.00
2017-12-06T10:48:46.704Z,5132.00
2017-12-06T10:49:46.745Z,5064.00
2017-12-06T10:50:46.806Z,5104.00
2017-12-06T10:51:46.830Z,5136.00
2017-12-06T10:52:46.871Z,5148.00
2017-12-06T10:53:46.937Z,5220.00
2017-12-06T10:54:46.956Z,5368.00
2017-12-06T10:55:46.995Z,5432.00
2017-12-06T10:56:47.542Z,5292.00
2017-12-06T10:57:47.078Z,5028.00
2017-12-06T10:58:47.116Z,4784.00
2017-12-06T10:59:47.166Z,4632.00
2017-12-06T11:00:47.202Z,4576.00
2017-12-06T11:01:47.265Z,4592.00
2017-12-06T11:02:47.287Z,4632.00
2017-12-06T11:03:47.325Z,4712.00
2017-12-06T11:04:47.372Z,4828.00
2017-12-06T11:05:47.415Z,4960.00
2017-12-06T11:06:47.476Z,5096.00
2017-12-06T11:07:47.495Z,5296.00
2017-12-06T11:08:47.536Z,5484.00
2017-12-06T11:09:47.595Z,5648.00
2017-12-06T11:10:47.622Z,5764.00
2017-12-06T11:11:47.683Z,5812.00
2017-12-06T11:12:48.417Z,5824.00
2017-12-06T11:13:47.750Z,5856.00
2017-12-06T11:14:47.797Z,6016.00
2017-12-06T11:15:47.831Z,6168.00
2017-12-06T11:16:47.892Z,6084.00
2017-12-06T11:17:47.912Z,5904.00
2017-12-06T11:18:47.954Z,5784.00
2017-12-06T11:19:48.001Z,5736.00
2017-12-06T11:20:48.089Z,5680.00
2017-12-06T11:21:48.102Z,5728.00
2017-12-06T11:22:48.123Z,5808.00
2017-12-06T11:23:48.164Z,5852.00
2017-12-06T11:24:48.204Z,5832.00
2017-12-06T11:25:48.282Z,5812.00
2017-12-06T11:26:48.290Z,5860.00
2017-12-06T11:27:48.330Z,5956.00
2017-12-06T11:28:48.374Z,6020.00
2017-12-06T11:29:48.415Z,6012.00
2017-12-06T11:30:48.470Z,5932.00
2017-12-06T11:31:48.501Z,5792.00
2017-12-06T11:32:48.573Z,5672.00
2017-12-06T11:33:48.581Z,5580.00
2017-12-06T11:34:48.630Z,5480.00
2017-12-06T11:35:48.668Z,5356.00
2017-12-06T11:36:48.710Z,5172.00
2017-12-06T11:37:48.789Z,4924.00
2017-12-06T11:38:48.793Z,4696.00
2017-12-06T11:39:48.838Z,4520.00
2017-12-06T11:40:48.878Z,4328.00
2017-12-06T11:41:48.920Z,4216.00
2017-12-06T11:42:48.998Z,4232.00
2017-12-06T11:43:49.004Z,4332.00
2017-12-06T11:44:49.046Z,4428.00
2017-12-06T11:45:49.094Z,4508.00
2017-12-06T11:46:49.137Z,4612.00
2017-12-06T11:47:49.190Z,4716.00
2017-12-06T11:48:49.236Z,4792.00
2017-12-06T11:49:49.259Z,4784.00
2017-12-06T11:50:49.299Z,4836.00
2017-12-06T11:51:49.343Z,4964.00
2017-12-06T11:52:49.383Z,5116.00
2017-12-06T11:53:49.444Z,5316.00
2017-12-06T11:54:49.470Z,5464.00
2017-12-06T11:55:49.515Z,5556.00
2017-12-06T11:56:49.552Z,5640.00
2017-12-06T11:57:49.595Z,5692.00
2017-12-06T11:58:49.657Z,5692.00
2017-12-06T11:59:49.680Z,5644.00
2017-12-06T12:00:49.720Z,5524.00
2017-12-06T12:01:49.764Z,5388.00
2017-12-06T12:02:49.806Z,5208.00
2017-12-06T12:03:49.866Z,5108.00
2017-12-06T12:04:49.908Z,5160.00
2017-12-06T12:05:49.940Z,5296.00
2017-12-06T12:06:49.975Z,5408.00
2017-12-06T12:07:50.019Z,5444.00
2017-12-06T12:08:50.074Z,5428.00
2017-12-06T12:09:50.102Z,5356.00
2017-12-06T12:10:50.158Z,5252.00
2017-12-06T12:11:50.184Z,5212.00
2017-12-06T12:12:50.225Z,5224.00
2017-12-06T12:13:50.268Z,5228.00
2017-12-06T12:14:50.311Z,5224.00
2017-12-06T12:15:50.373Z,5240.00
2017-12-06T12:16:50.394Z,5184.00
2017-12-06T12:17:50.457Z,5180.00
2017-12-06T12:18:50.497Z,5176.00
2017-12-06T12:19:50.525Z,5144.00
2017-12-06T12:20:50.559Z,5032.00
2017-12-06T12:21:50.607Z,4936.00
2017-12-06T12:22:50.649Z,4916.00
2017-12-06T12:23:50.706Z,4976.00
2017-12-06T12:24:50.731Z,5100.00
2017-12-06T12:25:50.774Z,5168.00
2017-12-06T12:26:50.816Z,5144.00
2017-12-06T12:27:50.864Z,5116.00
2017-12-06T12:28:50.917Z,5112.00
2017-12-06T12:29:50.941Z,5056.00
2017-12-06T12:30:50.988Z,4968.00
2017-12-06T12:31:51.045Z,4896.00
2017-12-06T12:32:51.068Z,4816.00
2017-12-06T12:33:51.112Z,4724.00
2017-12-06T12:34:51.154Z,4652.00
2017-12-06T12:35:51.200Z,4648.00
2017-12-06T12:36:51.274Z,4764.00
2017-12-06T12:37:51.279Z,4912.00
2017-12-06T12:38:51.343Z,5040.00
2017-12-06T12:39:51.363Z,5112.00
2017-12-06T12:40:51.405Z,5040.00
2017-12-06T12:41:51.465Z,4968.00
2017-12-06T12:42:51.490Z,4916.00
2017-12-06T12:43:51.535Z,4912.00
2017-12-06T12:44:51.574Z,4988.00
2017-12-06T12:45:51.616Z,5048.00
2017-12-06T12:46:51.725Z,5132.00
2017-12-06T12:47:51.702Z,5232.00
2017-12-06T12:48:51.744Z,5216.00
2017-12-06T12:49:51.785Z,5248.00
2017-12-06T12:50:51.827Z,5280.00